createdAt,value
2024-01-20T00:00:24.213Z,4.35
2024-01-20T00:03:26.119Z,4.30
2024-01-20T00:06:29.522Z,4.47
2024-01-20T00:09:38.614Z,4.70
2024-01-20T00:12:47.799Z,3.90
2024-01-20T00:15:49.966Z,4.30
2024-01-20T00:18:52.046Z,4.13
2024-01-20T00:21:54.712Z,3.95
2024-01-20T00:25:00.396Z,4.55
2024-01-20T00:28:04.930Z,3.88
2024-01-20T00:31:08.042Z,4.72
2024-01-20T00:34:10.068Z,3.75
2024-01-20T00:37:13.148Z,4.40
2024-01-20T00:40:15.432Z,3.80
2024-01-20T00:43:17.601Z,4.43
2024-01-20T00:46:19.483Z,4.00
2024-01-20T00:49:21.419Z,3.72
2024-01-20T00:52:23.540Z,3.33
2024-01-20T00:55:25.687Z,4.18
2024-01-20T00:58:27.587Z,3.97
2024-01-20T01:01:29.524Z,3.90
2024-01-20T01:04:31.340Z,4.00
2024-01-20T01:07:34.083Z,4.53
2024-01-20T01:10:36.031Z,4.28
2024-01-20T01:13:40.491Z,4.35
2024-01-20T01:16:42.918Z,4.38
2024-01-20T01:19:46.923Z,3.80
2024-01-20T01:22:51.802Z,4.22
2024-01-20T01:25:55.301Z,4.05
2024-01-20T01:28:57.245Z,4.22
2024-01-20T01:31:59.637Z,4.28
2024-01-20T01:35:01.607Z,3.58
2024-01-20T01:38:03.822Z,3.83
2024-01-20T01:41:05.905Z,4.28
2024-01-20T01:44:08.001Z,3.97
2024-01-20T01:47:10.721Z,4.22
2024-01-20T01:50:13.909Z,4.00
2024-01-20T01:53:16.562Z,4.43
2024-01-20T01:56:18.529Z,3.75
2024-01-20T01:59:20.983Z,4.15
2024-01-20T02:02:22.969Z,3.45
2024-01-20T02:05:25.297Z,3.95
2024-01-20T02:08:29.998Z,4.03
2024-01-20T02:11:32.715Z,3.63
2024-01-20T02:14:35.803Z,3.65
2024-01-20T02:17:37.745Z,3.78
2024-01-20T02:20:39.667Z,3.72
2024-01-20T02:23:42.265Z,3.70
2024-01-20T02:26:44.604Z,3.63
2024-01-20T02:29:46.618Z,3.90
2024-01-20T02:32:48.786Z,3.65
2024-01-20T02:35:50.934Z,3.15
2024-01-20T02:38:53.192Z,2.70
2024-01-20T02:41:55.222Z,3.03
2024-01-20T02:44:57.307Z,3.33
2024-01-20T02:48:00.034Z,2.53
2024-01-20T02:51:02.243Z,2.53
2024-01-20T02:54:04.742Z,2.88
2024-01-20T02:57:06.712Z,3.38
2024-01-20T03:00:09.497Z,3.45
2024-01-20T03:03:11.900Z,2.78
2024-01-20T03:06:13.847Z,3.00
2024-01-20T03:09:16.339Z,2.88
2024-01-20T03:12:18.454Z,2.75
2024-01-20T03:15:20.512Z,2.80
2024-01-20T03:18:23.052Z,2.47
2024-01-20T03:21:25.103Z,2.78
2024-01-20T03:24:27.181Z,2.55
2024-01-20T03:27:29.170Z,2.50
2024-01-20T03:30:31.096Z,2.60
2024-01-20T03:33:33.142Z,2.20
2024-01-20T03:36:35.101Z,2.67
2024-01-20T03:39:37.071Z,3.42
2024-01-20T03:42:39.061Z,3.33
2024-01-20T03:45:44.156Z,3.70
2024-01-20T03:48:46.272Z,4.38
2024-01-20T03:51:48.320Z,3.75
2024-01-20T03:54:50.247Z,3.42
2024-01-20T03:57:52.158Z,3.22
2024-01-20T04:00:54.105Z,3.28
2024-01-20T04:03:56.115Z,2.83
2024-01-20T04:06:58.171Z,2.70
2024-01-20T04:10:00.083Z,2.70
2024-01-20T04:13:02.230Z,3.08
2024-01-20T04:16:04.349Z,2.50
2024-01-20T04:19:06.393Z,2.95
2024-01-20T04:22:08.841Z,2.65
2024-01-20T04:25:11.588Z,6.38
2024-01-20T04:28:13.647Z,4.82
2024-01-20T04:31:15.538Z,4.28
2024-01-20T04:34:17.602Z,4.03
2024-01-20T04:37:19.564Z,3.75
2024-01-20T04:40:22.724Z,2.90
2024-01-20T04:43:24.561Z,3.78
2024-01-20T04:46:26.463Z,3.17
2024-01-20T04:49:28.487Z,2.97
2024-01-20T04:52:30.419Z,2.75
2024-01-20T04:55:32.782Z,2.38
2024-01-20T04:58:34.856Z,3.20
2024-01-20T05:01:38.894Z,3.10
2024-01-20T05:04:42.360Z,3.33
2024-01-20T05:07:44.372Z,2.67
2024-01-20T05:10:47.103Z,3.00
2024-01-20T05:13:49.671Z,3.10
2024-01-20T05:16:51.573Z,10.40
2024-01-20T05:19:54.095Z,7.72
2024-01-20T05:22:56.122Z,5.50
2024-01-20T05:25:58.087Z,7.70
2024-01-20T05:29:00.001Z,7.13
2024-01-20T05:32:01.966Z,8.35
2024-01-20T05:35:04.276Z,7.05
2024-01-20T05:38:06.140Z,7.60
2024-01-20T05:41:09.592Z,8.82
2024-01-20T05:44:12.237Z,7.53
2024-01-20T05:47:15.166Z,7.97
2024-01-20T05:50:17.186Z,7.30
2024-01-20T05:53:21.254Z,7.50
2024-01-20T05:56:24.831Z,6.90
2024-01-20T05:59:26.760Z,7.40
2024-01-20T06:02:28.609Z,6.55
2024-01-20T06:05:31.283Z,6.28
2024-01-20T06:08:33.303Z,6.38
2024-01-20T06:11:35.208Z,6.90
2024-01-20T06:14:37.084Z,6.45
2024-01-20T06:17:39.541Z,6.88
2024-01-20T06:20:41.505Z,6.78
2024-01-20T06:23:43.473Z,7.68
2024-01-20T06:26:45.416Z,8.77
2024-01-20T06:29:47.351Z,9.02
2024-01-20T06:32:49.268Z,12.60
2024-01-20T06:35:51.774Z,15.43
2024-01-20T06:38:54.412Z,13.02
2024-01-20T06:41:56.551Z,13.32
2024-01-20T06:45:00.911Z,15.73
2024-01-20T06:48:03.928Z,14.38
2024-01-20T06:51:07.735Z,12.93
2024-01-20T06:54:10.039Z,12.52
2024-01-20T06:57:12.059Z,15.75
2024-01-20T07:00:15.144Z,18.25
2024-01-20T07:03:17.281Z,18.48
2024-01-20T07:06:23.989Z,16.05
2024-01-20T07:09:26.802Z,14.90
2024-01-20T07:12:30.837Z,14.38
2024-01-20T07:15:33.059Z,13.82
2024-01-20T07:18:35.141Z,14.00
2024-01-20T07:21:37.085Z,16.90
2024-01-20T07:24:39.094Z,17.05
2024-01-20T07:27:41.028Z,12.40
2024-01-20T07:30:42.910Z,10.00
2024-01-20T07:33:45.000Z,7.88
2024-01-20T07:36:47.134Z,7.90
2024-01-20T07:39:48.997Z,6.85
2024-01-20T07:42:50.857Z,7.28
2024-01-20T07:45:56.879Z,9.45
2024-01-20T07:48:58.735Z,9.05
2024-01-20T07:52:00.869Z,10.55
2024-01-20T07:55:02.830Z,11.75
2024-01-20T07:58:04.690Z,12.40
2024-01-20T08:01:06.560Z,11.48
2024-01-20T08:04:09.100Z,12.82
2024-01-20T08:07:11.092Z,10.55
2024-01-20T08:10:13.168Z,9.82
2024-01-20T08:13:15.149Z,9.38
2024-01-20T08:16:17.166Z,10.35
2024-01-20T08:19:19.287Z,10.75
2024-01-20T08:22:22.326Z,10.40
2024-01-20T08:25:24.338Z,9.85
2024-01-20T08:28:26.227Z,9.30
2024-01-20T08:31:28.757Z,8.65
2024-01-20T08:34:30.778Z,8.73
2024-01-20T08:37:32.753Z,8.48
2024-01-20T08:40:34.578Z,7.95
2024-01-20T08:43:42.205Z,7.45
2024-01-20T08:46:44.205Z,6.22
2024-01-20T08:49:49.084Z,5.75
2024-01-20T08:52:50.965Z,5.47
2024-01-20T08:55:52.963Z,6.45
2024-01-20T08:58:55.067Z,5.97
2024-01-20T09:01:57.017Z,6.53
2024-01-20T09:04:59.475Z,6.80
2024-01-20T09:08:01.384Z,5.68
2024-01-20T09:11:03.252Z,6.28
2024-01-20T09:14:06.275Z,5.78
2024-01-20T09:17:08.178Z,5.53
2024-01-20T09:20:10.448Z,6.55
2024-01-20T09:23:12.518Z,6.43
2024-01-20T09:26:14.448Z,5.97
2024-01-20T09:29:16.348Z,5.72
2024-01-20T09:32:18.414Z,6.15
2024-01-20T09:35:20.237Z,4.10
2024-01-20T09:38:22.746Z,4.22
2024-01-20T09:41:26.462Z,3.65
2024-01-20T09:44:28.471Z,4.00
2024-01-20T09:47:30.448Z,3.70
2024-01-20T09:50:32.378Z,3.22
2024-01-20T09:53:36.260Z,4.45
2024-01-20T09:56:39.289Z,3.40
2024-01-20T09:59:43.643Z,3.85
2024-01-20T10:02:47.098Z,4.25
2024-01-20T10:05:49.632Z,4.38
2024-01-20T10:08:51.517Z,4.43
2024-01-20T10:11:53.624Z,3.95
2024-01-20T10:14:55.761Z,4.70
2024-01-20T10:17:59.532Z,4.40
2024-01-20T10:21:02.811Z,5.32
2024-01-20T10:24:05.901Z,5.20
2024-01-20T10:27:08.071Z,4.53
2024-01-20T10:30:10.480Z,4.72
2024-01-20T10:33:12.548Z,4.18
2024-01-20T10:36:18.889Z,4.15
2024-01-20T10:39:23.057Z,4.20
2024-01-20T10:42:31.808Z,4.28
2024-01-20T10:45:42.785Z,4.45
2024-01-20T10:48:51.821Z,4.07
2024-01-20T10:51:57.718Z,3.17
2024-01-20T10:55:00.971Z,3.50
2024-01-20T10:58:07.882Z,3.75
2024-01-20T11:01:12.992Z,3.88
2024-01-20T11:04:21.352Z,3.38
2024-01-20T11:07:32.955Z,4.10
2024-01-20T11:10:41.677Z,3.97
2024-01-20T11:13:48.298Z,4.38
2024-01-20T11:16:51.928Z,4.63
2024-01-20T11:19:54.716Z,4.90
2024-01-20T11:22:57.182Z,4.78
2024-01-20T11:26:10.610Z,5.20
2024-01-20T11:29:12.607Z,5.40
2024-01-20T11:32:14.595Z,5.10
2024-01-20T11:35:16.972Z,4.85
2024-01-20T11:38:19.198Z,4.72
2024-01-20T11:41:21.182Z,4.90
2024-01-20T11:44:23.540Z,4.57
2024-01-20T11:47:25.686Z,4.72
2024-01-20T11:50:27.930Z,5.03
2024-01-20T11:53:31.837Z,4.60
2024-01-20T11:56:33.606Z,5.38
2024-01-20T11:59:35.502Z,4.65
2024-01-20T12:02:37.501Z,4.68
2024-01-20T12:05:39.569Z,4.55
2024-01-20T12:08:46.340Z,4.80
2024-01-20T12:11:48.502Z,4.57
2024-01-20T12:14:51.513Z,4.22
2024-01-20T12:17:53.656Z,5.30
2024-01-20T12:20:55.789Z,4.53
2024-01-20T12:23:57.716Z,4.13
2024-01-20T12:26:59.586Z,4.32
2024-01-20T12:30:01.824Z,4.88
2024-01-20T12:33:03.977Z,4.80
2024-01-20T12:36:06.048Z,5.13
2024-01-20T12:39:09.039Z,5.60
2024-01-20T12:42:11.062Z,5.72
2024-01-20T12:45:13.395Z,5.40
2024-01-20T12:48:15.487Z,5.32
2024-01-20T12:51:17.652Z,5.15
2024-01-20T12:54:19.805Z,5.75
2024-01-20T12:57:21.968Z,4.80
2024-01-20T13:00:24.016Z,4.90
2024-01-20T13:03:26.767Z,5.55
2024-01-20T13:06:32.183Z,5.22
2024-01-20T13:09:34.073Z,5.60
2024-01-20T13:12:36.216Z,5.07
2024-01-20T13:15:38.221Z,4.72
2024-01-20T13:18:40.168Z,4.28
2024-01-20T13:21:42.714Z,4.88
2024-01-20T13:24:44.703Z,4.05
2024-01-20T13:27:46.698Z,4.90
2024-01-20T13:30:51.431Z,4.88
2024-01-20T13:33:54.668Z,5.65
2024-01-20T13:36:57.213Z,5.10
2024-01-20T13:39:59.041Z,4.53
2024-01-20T13:43:01.053Z,4.93
2024-01-20T13:46:03.885Z,5.20
2024-01-20T13:49:07.634Z,5.88
2024-01-20T13:52:11.000Z,5.85
2024-01-20T13:55:15.636Z,6.13
2024-01-20T13:58:17.480Z,5.00
2024-01-20T14:01:22.875Z,4.45
2024-01-20T14:04:25.633Z,5.75
2024-01-20T14:07:27.610Z,4.72
2024-01-20T14:10:29.560Z,5.43
2024-01-20T14:13:31.351Z,4.93
2024-01-20T14:16:33.225Z,5.57
2024-01-20T14:19:35.167Z,5.00
2024-01-20T14:22:37.203Z,4.10
2024-01-20T14:25:39.522Z,5.03
2024-01-20T14:28:41.624Z,5.32
2024-01-20T14:31:48.971Z,5.28
2024-01-20T14:34:50.994Z,5.78
2024-01-20T14:37:53.056Z,5.57
2024-01-20T14:40:54.962Z,5.47
2024-01-20T14:43:56.973Z,5.65
2024-01-20T14:46:58.871Z,5.65
2024-01-20T14:50:02.399Z,7.18
2024-01-20T14:53:04.711Z,6.65
2024-01-20T14:56:07.573Z,6.35
2024-01-20T14:59:09.766Z,6.32
2024-01-20T15:02:11.751Z,6.38
2024-01-20T15:05:13.644Z,5.93
2024-01-20T15:08:15.592Z,6.60
2024-01-20T15:11:17.468Z,6.63
2024-01-20T15:14:19.359Z,6.68
2024-01-20T15:17:21.409Z,7.95
2024-01-20T15:20:23.427Z,8.75
2024-01-20T15:23:25.368Z,9.90
2024-01-20T15:26:27.334Z,9.57
2024-01-20T15:29:31.697Z,10.38
2024-01-20T15:32:33.652Z,10.05
2024-01-20T15:35:39.472Z,9.60
2024-01-20T15:38:43.016Z,9.95
2024-01-20T15:41:47.286Z,10.15
2024-01-20T15:44:49.242Z,10.93
2024-01-20T15:47:51.244Z,11.68
2024-01-20T15:50:53.179Z,11.23
2024-01-20T15:53:55.184Z,10.35
2024-01-20T15:56:57.099Z,9.65
2024-01-20T15:59:59.595Z,10.25
2024-01-20T16:03:02.002Z,11.52
2024-01-20T16:06:04.128Z,11.90
2024-01-20T16:09:06.378Z,10.93
2024-01-20T16:12:08.493Z,12.25
2024-01-20T16:15:12.961Z,12.85
2024-01-20T16:18:15.617Z,12.55
2024-01-20T16:21:27.649Z,12.20
2024-01-20T16:24:29.579Z,11.93
2024-01-20T16:27:31.510Z,13.07
2024-01-20T16:30:34.450Z,15.77
2024-01-20T16:33:36.706Z,16.52
2024-01-20T16:36:38.919Z,14.73
2024-01-20T16:39:42.882Z,15.65
2024-01-20T16:42:46.493Z,15.63
2024-01-20T16:45:48.586Z,16.60
2024-01-20T16:48:51.342Z,17.88
2024-01-20T16:51:53.353Z,17.13
2024-01-20T16:54:55.283Z,18.75
2024-01-20T16:57:58.076Z,18.92
2024-01-20T17:01:00.242Z,19.25
2024-01-20T17:04:03.029Z,19.77
2024-01-20T17:07:05.215Z,19.08
2024-01-20T17:10:07.829Z,16.58
2024-01-20T17:13:09.713Z,16.67
2024-01-20T17:16:11.598Z,16.17
2024-01-20T17:19:15.515Z,15.98
2024-01-20T17:22:17.558Z,15.32
2024-01-20T17:25:19.590Z,14.95
2024-01-20T17:28:21.334Z,14.77
2024-01-20T17:31:27.358Z,14.50
2024-01-20T17:34:30.044Z,14.32
2024-01-20T17:37:32.003Z,14.15
2024-01-20T17:40:34.267Z,14.75
2024-01-20T17:43:36.994Z,14.98
2024-01-20T17:46:38.942Z,15.63
2024-01-20T17:49:41.253Z,15.15
2024-01-20T17:53:02.940Z,13.93
2024-01-20T17:56:05.781Z,13.75
2024-01-20T17:59:07.723Z,14.65
2024-01-20T18:02:09.744Z,16.65
2024-01-20T18:05:12.413Z,15.80
2024-01-20T18:08:14.483Z,15.57
2024-01-20T18:11:17.311Z,16.38
2024-01-20T18:14:19.278Z,14.30
2024-01-20T18:17:21.183Z,14.23
2024-01-20T18:20:23.145Z,13.98
2024-01-20T18:23:26.355Z,11.90
2024-01-20T18:26:28.332Z,11.55
2024-01-20T18:29:30.397Z,13.07
2024-01-20T18:32:32.622Z,12.70
2024-01-20T18:35:34.707Z,13.57
2024-01-20T18:38:36.741Z,12.80
2024-01-20T18:41:38.862Z,12.40
2024-01-20T18:44:44.646Z,13.55
2024-01-20T18:47:47.336Z,14.82
2024-01-20T18:50:49.887Z,15.73
2024-01-20T18:53:52.212Z,16.30
2024-01-20T18:56:54.580Z,16.08
2024-01-20T18:59:57.629Z,15.85
2024-01-20T19:02:59.461Z,16.27
2024-01-20T19:06:01.272Z,16.10
2024-01-20T19:09:04.724Z,15.52
2024-01-20T19:12:06.944Z,14.82
2024-01-20T19:15:09.919Z,14.60
2024-01-20T19:18:12.342Z,15.35
2024-01-20T19:21:14.329Z,14.48
2024-01-20T19:24:17.381Z,14.75
2024-01-20T19:27:21.124Z,14.32
2024-01-20T19:30:23.130Z,15.93
2024-01-20T19:33:25.199Z,15.73
2024-01-20T19:36:27.242Z,14.30
2024-01-20T19:39:29.286Z,15.18
2024-01-20T19:42:31.222Z,14.35
2024-01-20T19:45:33.375Z,14.45
2024-01-20T19:48:36.148Z,15.43
2024-01-20T19:51:42.609Z,15.13
2024-01-20T19:54:45.987Z,16.65
2024-01-20T19:57:48.636Z,16.75
2024-01-20T20:00:51.485Z,15.57
2024-01-20T20:03:53.706Z,16.23
2024-01-20T20:06:55.852Z,15.52
2024-01-20T20:09:57.976Z,15.15
2024-01-20T20:13:00.012Z,14.73
2024-01-20T20:16:01.906Z,14.38
2024-01-20T20:19:04.762Z,14.57
2024-01-20T20:22:06.794Z,14.77
2024-01-20T20:25:08.756Z,14.65
2024-01-20T20:28:10.770Z,14.93
2024-01-20T20:31:12.755Z,15.00
2024-01-20T20:34:14.856Z,14.35
2024-01-20T20:37:18.685Z,14.88
2024-01-20T20:40:20.630Z,15.30
2024-01-20T20:43:23.069Z,15.52
2024-01-20T20:46:25.104Z,14.82
2024-01-20T20:49:26.993Z,15.60
2024-01-20T20:52:29.463Z,16.88
2024-01-20T20:55:31.553Z,15.95
2024-01-20T20:58:33.467Z,15.77
2024-01-20T21:01:35.371Z,16.42
2024-01-20T21:04:39.322Z,16.00
2024-01-20T21:07:41.724Z,16.23
2024-01-20T21:10:43.706Z,15.93
2024-01-20T21:13:45.586Z,15.63
2024-01-20T21:16:48.273Z,15.52
2024-01-20T21:19:50.290Z,15.13
2024-01-20T21:22:52.270Z,16.77
2024-01-20T21:25:55.315Z,16.95
2024-01-20T21:28:57.281Z,16.30
2024-01-20T21:31:59.170Z,16.77
2024-01-20T21:35:01.201Z,18.27
2024-01-20T21:38:05.903Z,17.08
2024-01-20T21:41:07.938Z,16.23
2024-01-20T21:44:09.826Z,15.43
2024-01-20T21:47:11.887Z,16.77
2024-01-20T21:50:15.082Z,15.15
2024-01-20T21:53:21.958Z,15.15
2024-01-20T21:56:23.882Z,15.95
2024-01-20T21:59:25.910Z,16.45
2024-01-20T22:02:28.841Z,16.50
2024-01-20T22:05:30.995Z,18.63
2024-01-20T22:08:33.524Z,22.42
2024-01-20T22:11:35.468Z,19.75
2024-01-20T22:14:37.575Z,20.95
2024-01-20T22:17:39.662Z,19.92
2024-01-20T22:20:41.617Z,18.67
2024-01-20T22:23:44.135Z,20.23
2024-01-20T22:26:46.677Z,21.30
2024-01-20T22:29:48.528Z,19.90
2024-01-20T22:32:52.820Z,19.23
2024-01-20T22:35:54.890Z,19.90
2024-01-20T22:38:56.957Z,18.00
2024-01-20T22:41:58.896Z,19.02
2024-01-20T22:45:00.831Z,19.35
2024-01-20T22:48:03.266Z,18.08
2024-01-20T22:51:05.592Z,18.50
2024-01-20T22:54:07.525Z,19.75
2024-01-20T22:57:09.487Z,19.10
2024-01-20T23:00:14.659Z,17.52
2024-01-20T23:03:16.652Z,19.65
2024-01-20T23:06:18.922Z,16.75
2024-01-20T23:09:22.102Z,19.13
2024-01-20T23:12:24.150Z,19.25
2024-01-20T23:15:25.981Z,18.85
2024-01-20T23:18:27.893Z,19.17
2024-01-20T23:21:29.815Z,19.08
2024-01-20T23:24:31.943Z,19.27
2024-01-20T23:27:36.280Z,18.63
2024-01-20T23:30:38.476Z,18.85
2024-01-20T23:33:40.644Z,18.83
2024-01-20T23:36:42.675Z,18.23
2024-01-20T23:39:44.706Z,20.02
2024-01-20T23:42:46.616Z,19.13
2024-01-20T23:45:49.863Z,19.90
2024-01-20T23:48:51.796Z,19.08
2024-01-20T23:51:54.946Z,19.33
2024-01-20T23:54:57.858Z,19.70
2024-01-20T23:57:59.695Z,19.05
